Cruzeiro Do Sul — WDJ2082 — position and weather

sailwx.info

Track history (hours):
 
Tides and Currents Weather Stations Pressure Air Temp Water Temp Dewpoint Dewpoint Depression Visibility Wind Speed Wind Dir Waves Ship Positions

Cruzeiro Do Sul

Owner: Allen, Gail K, Anacortes, WA. More information available from US FCC via Universal Licensing System and Coast Guard Vessel Documentation Center.

Last reported at 2018-May-21 22:12 UTC. Time now 2018-May-25 00:49 UTC.
Position N 48°53' W 123°24'.

Length 16 m.

Type: Pleasure craft. MMSI: 367755070.

Date/timePositionNaut miles runAvg speedWind from/ knotsBaromVisibWave heightAir tempDewpointWater temp
2018-May-21 22:12N 48°53' W 123°24'0 0.0
2018-May-21 22:00N 48°53' W 123°24'0 0.0
2018-May-21 21:18N 48°53' W 123°24'0 0.0
2018-May-21 21:00N 48°53' W 123°24'0 0.0
2018-May-21 20:30N 48°53' W 123°24'0 0.3
2018-May-21 20:00N 48°53' W 123°24'3 5.6
2018-May-21 19:29N 48°51' W 123°22'6 0.3
2018-May-20 23:32N 48°46' W 123°16'0 0.0
2018-May-20 23:26N 48°46' W 123°16'16 2.4
2018-May-20 16:48N 48°36' W 122°58'3 7.4
2018-May-20 16:26N 48°35' W 122°55'3 7.6
2018-May-20 16:00N 48°33' W 122°51'7 7.3
2018-May-20 15:06N 48°31' W 122°41'1 7.8
2018-May-20 14:59N 48°31' W 122°40'2 0.3
2018-May-20 09:26N 48°31' W 122°37'0 0.0
2018-May-20 08:50N 48°31' W 122°37'0 0.0
2018-May-20 08:26N 48°31' W 122°37'0 0.0
2018-May-20 07:56N 48°31' W 122°37'0 0.0
2018-May-20 07:14N 48°31' W 122°37'0 0.0
2018-May-20 06:56N 48°31' W 122°37'0 0.0
2018-May-20 06:26N 48°31' W 122°37'0 0.0
2018-May-20 01:20N 48°31' W 122°37'0 0.0
2018-May-20 00:56N 48°31' W 122°37'0 0.0
2018-May-20 00:26N 48°31' W 122°37'0 0.0
2018-May-19 23:56N 48°31' W 122°37'0 0.0
2018-May-19 23:26N 48°31' W 122°37'0 0.0
2018-May-19 22:56N 48°31' W 122°37'0 0.0
2018-May-19 22:26N 48°31' W 122°37'0 0.0
2018-May-19 21:56N 48°31' W 122°37'0 0.0
2018-May-19 21:20N 48°31' W 122°37'0 0.0
2018-May-19 20:56N 48°31' W 122°37'0 0.0
2018-May-19 19:32N 48°31' W 122°37'0 0.0
2018-May-19 19:08N 48°31' W 122°37'0 0.0
2018-May-19 18:56N 48°31' W 122°37'0 0.0
2018-May-19 18:26N 48°31' W 122°37'0 0.0
2018-May-19 17:56N 48°31' W 122°37'0 0.0
2018-May-19 17:26N 48°31' W 122°37'0 0.0
2018-May-19 16:50N 48°31' W 122°37'0 0.0
2018-May-19 16:26N 48°31' W 122°37'0 0.0
2018-May-19 15:56N 48°31' W 122°37'0 0.0
2018-May-19 15:20N 48°31' W 122°37'0 0.0
2018-May-19 14:38N 48°31' W 122°37'0 0.0
2018-May-19 14:26N 48°31' W 122°37'0 0.0
2018-May-19 13:56N 48°31' W 122°37'0 0.0
2018-May-19 13:14N 48°31' W 122°37'0 0.0
2018-May-19 12:56N 48°31' W 122°37'0 0.0
2018-May-19 12:20N 48°31' W 122°37'0 0.0
2018-May-19 11:56N 48°31' W 122°37'0 0.0
2018-May-19 11:20N 48°31' W 122°37'0 0.0
2018-May-19 10:56N 48°31' W 122°37'0 0.0
2018-May-19 10:20N 48°31' W 122°37'0 0.0
2018-May-19 09:56N 48°31' W 122°37'0 0.0
2018-May-19 09:26N 48°31' W 122°37'0 0.0
2018-May-19 08:50N 48°31' W 122°37'0 0.0
2018-May-19 08:26N 48°31' W 122°37'0 0.0
2018-May-19 07:50N 48°31' W 122°37'0 0.0
2018-May-19 07:26N 48°31' W 122°37'0 0.0
2018-May-19 06:56N 48°31' W 122°37'0 0.0
2018-May-19 06:26N 48°31' W 122°37'0 0.0
2018-May-19 05:56N 48°31' W 122°37'0 0.0
2018-May-19 05:26N 48°31' W 122°37'0 0.0
2018-May-19 03:44N 48°31' W 122°37'0 0.0
2018-May-19 03:26N 48°31' W 122°37'0 0.0
2018-May-19 02:14N 48°31' W 122°37'0 0.0
2018-May-19 01:56N 48°31' W 122°37'0 0.0
2018-May-19 00:32N 48°31' W 122°37'0 0.1
2018-May-19 00:26N 48°31' W 122°37'0 0.0
2018-May-18 23:56N 48°31' W 122°37'0 0.0
2018-May-18 23:26N 48°31' W 122°37'0 0.0
2018-May-18 22:56N 48°31' W 122°37'0 0.0
2018-May-18 22:20N 48°31' W 122°37'0 0.0
2018-May-18 20:50N 48°31' W 122°37'0 0.0
2018-May-18 20:26N 48°31' W 122°37'0 0.0
2018-May-18 19:20N 48°31' W 122°37'0 0.0
2018-May-18 18:26N 48°31' W 122°37'0 0.0
2018-May-18 17:56N 48°31' W 122°37'0 0.0
2018-May-18 17:14N 48°31' W 122°37'0 0.0
2018-May-18 16:56N 48°31' W 122°37'0 0.0
2018-May-18 15:32N 48°31' W 122°37'0 0.1
2018-May-18 15:26N 48°31' W 122°37'0 0.0
2018-May-18 14:56N 48°31' W 122°37'0 0.0
2018-May-18 14:26N 48°31' W 122°37'0 0.0
2018-May-18 13:32N 48°31' W 122°37'0 0.0
2018-May-18 13:26N 48°31' W 122°37'0 0.0
2018-May-18 12:50N 48°31' W 122°37'0 0.0
2018-May-18 12:26N 48°31' W 122°37'0 0.0
2018-May-18 11:32N 48°31' W 122°37'0 0.0
2018-May-18 11:14N 48°31' W 122°37'0 0.0
2018-May-18 10:32N 48°31' W 122°37'0 0.0
2018-May-18 10:14N 48°31' W 122°37'0 0.0
2018-May-18 09:44N 48°31' W 122°37'0 0.0
2018-May-18 09:26N 48°31' W 122°37'0 0.0
2018-May-18 08:56N 48°31' W 122°37'0 0.0
2018-May-18 08:26N 48°31' W 122°37'0 0.0
2018-May-18 07:50N 48°31' W 122°37'0 0.0
2018-May-18 06:56N 48°31' W 122°37'0 0.0
2018-May-18 06:14N 48°31' W 122°37'0 0.0
2018-May-18 05:44N 48°31' W 122°37'0 0.0
2018-May-18 05:14N 48°31' W 122°37'0 0.0
2018-May-18 04:50N 48°31' W 122°37'0 0.0
2018-May-18 04:20N 48°31' W 122°37'0 0.0
2018-May-18 03:20N 48°31' W 122°37'0 0.0
2018-May-18 02:50N 48°31' W 122°37'0 0.0
2018-May-18 02:26N 48°31' W 122°37'0 0.0
2018-May-18 01:56N 48°31' W 122°37'0 0.0
2018-May-18 01:26N 48°31' W 122°37'0 0.0
2018-May-18 00:56N 48°31' W 122°37'0 0.0
2018-May-17 23:07N 48°31' W 122°37'0 3.2
2018-May-17 22:58N 48°31' W 122°37'1 1.3
2018-May-17 22:24N 48°31' W 122°36'0 0.0
2018-May-17 22:00N 48°31' W 122°36'0 0.0
2018-May-17 21:30N 48°31' W 122°36'0 0.0
2018-May-17 21:00N 48°31' W 122°36'0 0.0
2018-May-17 20:30N 48°31' W 122°36'1 0.8
2018-May-17 19:34N 48°31' W 122°37'0 0.0
2018-May-17 19:22N 48°31' W 122°37'0 0.0
2018-May-17 18:52N 48°31' W 122°37'0 0.0
2018-May-17 18:22N 48°31' W 122°37'0 0.0
2018-May-17 17:46N 48°31' W 122°37'0 0.0
2018-May-17 17:22N 48°31' W 122°37'0 0.0
2018-May-17 16:58N 48°31' W 122°37'0 0.0
2018-May-17 16:28N 48°31' W 122°37'0 0.0
2018-May-17 15:58N 48°31' W 122°37'0 0.0
2018-May-17 15:28N 48°31' W 122°37'0 0.0
2018-May-17 14:52N 48°31' W 122°37'0 0.0
2018-May-17 14:28N 48°31' W 122°37'0 0.0
2018-May-17 13:58N 48°31' W 122°37'0 0.0
2018-May-17 13:28N 48°31' W 122°37'0 0.0
2018-May-17 12:58N 48°31' W 122°37'0 0.0
2018-May-17 12:28N 48°31' W 122°37'0 0.0
2018-May-17 11:58N 48°31' W 122°37'0 0.0
2018-May-17 11:28N 48°31' W 122°37'0 0.0
2018-May-17 10:58N 48°31' W 122°37'0 0.0
2018-May-17 10:28N 48°31' W 122°37'0 0.0
2018-May-17 09:52N 48°31' W 122°37'0 0.0
2018-May-17 09:28N 48°31' W 122°37'0 0.0
2018-May-17 08:58N 48°31' W 122°37'0 0.0
2018-May-17 08:16N 48°31' W 122°37'0 0.0
2018-May-17 07:58N 48°31' W 122°37'0 0.0
2018-May-17 07:28N 48°31' W 122°37'0 0.0
2018-May-17 06:58N 48°31' W 122°37'0 0.0
2018-May-17 06:28N 48°31' W 122°37'0 0.0
2018-May-17 05:58N 48°31' W 122°37'0 0.0
2018-May-17 05:28N 48°31' W 122°37'0 0.0
2018-May-17 04:58N 48°31' W 122°37'0 0.0
2018-May-17 04:28N 48°31' W 122°37'0 0.0
2018-May-17 03:58N 48°31' W 122°37'0 0.0
2018-May-17 03:28N 48°31' W 122°37'0 0.0
2018-May-17 02:58N 48°31' W 122°37'0 0.0
2018-May-17 02:28N 48°31' W 122°37'0 0.0
2018-May-17 01:52N 48°31' W 122°37'0 0.0
2018-May-17 01:28N 48°31' W 122°37'0 0.0
2018-May-16 23:34N 48°31' W 122°37'0 0.0
2018-May-16 23:22N 48°31' W 122°37'0 0.0
2018-May-16 22:58N 48°31' W 122°37'0 0.0
2018-May-16 22:04N 48°31' W 122°37'0 0.0
2018-May-16 21:40N 48°31' W 122°37'0 0.0
2018-May-16 21:22N 48°31' W 122°37'0 0.0
2018-May-16 20:46N 48°31' W 122°37'0 0.0
2018-May-16 20:22N 48°31' W 122°37'0 0.0
2018-May-16 19:58N 48°31' W 122°37'0 0.0
2018-May-16 18:52N 48°31' W 122°37'0 0.0
2018-May-16 18:28N 48°31' W 122°37'0 0.0
2018-May-16 17:58N 48°31' W 122°37'0 0.0
2018-May-16 17:16N 48°31' W 122°37'0 0.0
2018-May-16 16:40N 48°31' W 122°37'0 0.0
2018-May-16 16:04N 48°31' W 122°37'0 0.0
2018-May-16 15:52N 48°31' W 122°37'0 0.0
2018-May-16 15:22N 48°31' W 122°37'0 0.0
2018-May-16 14:58N 48°31' W 122°37'0 0.0
2018-May-16 14:28N 48°31' W 122°37'0 0.0
2018-May-16 13:58N 48°31' W 122°37'0 0.0
2018-May-16 13:28N 48°31' W 122°37'0 0.0
2018-May-16 12:16N 48°31' W 122°37'0 0.0
2018-May-16 11:46N 48°31' W 122°37'0 0.0
2018-May-16 11:28N 48°31' W 122°37'0 0.0
2018-May-16 10:58N 48°31' W 122°37'0 0.0
2018-May-16 10:28N 48°31' W 122°37'0 0.0
2018-May-16 09:58N 48°31' W 122°37'0 0.0
2018-May-16 09:28N 48°31' W 122°37'0 0.0
2018-May-16 08:58N 48°31' W 122°37'0 0.0
2018-May-16 08:28N 48°31' W 122°37'0 0.0
2018-May-16 07:58N 48°31' W 122°37'0 0.0
2018-May-16 07:10N 48°31' W 122°37'0 0.0
2018-May-16 06:52N 48°31' W 122°37'0 0.0
2018-May-16 06:28N 48°31' W 122°37'0 0.0
2018-May-16 05:52N 48°31' W 122°37'0 0.0
2018-May-16 05:22N 48°31' W 122°37'0 0.0
2018-May-16 04:58N 48°31' W 122°37'0 0.0
2018-May-16 04:04N 48°31' W 122°37'0 0.1
2018-May-16 03:58N 48°31' W 122°37'0 0.0
2018-May-16 03:28N 48°31' W 122°37'0 0.0
2018-May-16 02:40N 48°31' W 122°37'0 0.0
2018-May-16 02:28N 48°31' W 122°37'0 0.0
2018-May-16 01:52N 48°31' W 122°37'0 0.0
2018-May-16 01:10N 48°31' W 122°37'0 0.0
2018-May-16 00:52N 48°31' W 122°37'  
Track history (hours):
 
Tides and Currents Weather Stations Pressure Air Temp Water Temp Dewpoint Dewpoint Depression Visibility Wind Speed Wind Dir Waves Ship Positions

Cruzeiro Do Sul

Owner: Allen, Gail K, Anacortes, WA. More information available from US FCC via Universal Licensing System and Coast Guard Vessel Documentation Center.

Last reported at 2018-May-21 22:12 UTC. Time now 2018-May-25 00:49 UTC.
Position N 48°53' W 123°24'.

Length 16 m.

Type: Pleasure craft. MMSI: 367755070.

Date/timePositionNaut miles runAvg speedWind from/ knotsBaromVisibWave heightAir tempDewpointWater temp
2018-May-21 22:12N 48°53' W 123°24'0 0.0
2018-May-21 22:00N 48°53' W 123°24'0 0.0
2018-May-21 21:18N 48°53' W 123°24'0 0.0
2018-May-21 21:00N 48°53' W 123°24'0 0.0
2018-May-21 20:30N 48°53' W 123°24'0 0.3
2018-May-21 20:00N 48°53' W 123°24'3 5.6
2018-May-21 19:29N 48°51' W 123°22'6 0.3
2018-May-20 23:32N 48°46' W 123°16'0 0.0
2018-May-20 23:26N 48°46' W 123°16'16 2.4
2018-May-20 16:48N 48°36' W 122°58'3 7.4
2018-May-20 16:26N 48°35' W 122°55'3 7.6
2018-May-20 16:00N 48°33' W 122°51'7 7.3
2018-May-20 15:06N 48°31' W 122°41'1 7.8
2018-May-20 14:59N 48°31' W 122°40'2 0.3
2018-May-20 09:26N 48°31' W 122°37'0 0.0
2018-May-20 08:50N 48°31' W 122°37'0 0.0
2018-May-20 08:26N 48°31' W 122°37'0 0.0
2018-May-20 07:56N 48°31' W 122°37'0 0.0
2018-May-20 07:14N 48°31' W 122°37'0 0.0
2018-May-20 06:56N 48°31' W 122°37'0 0.0
2018-May-20 06:26N 48°31' W 122°37'0 0.0
2018-May-20 01:20N 48°31' W 122°37'0 0.0
2018-May-20 00:56N 48°31' W 122°37'0 0.0
2018-May-20 00:26N 48°31' W 122°37'0 0.0
2018-May-19 23:56N 48°31' W 122°37'0 0.0
2018-May-19 23:26N 48°31' W 122°37'0 0.0
2018-May-19 22:56N 48°31' W 122°37'0 0.0
2018-May-19 22:26N 48°31' W 122°37'0 0.0
2018-May-19 21:56N 48°31' W 122°37'0 0.0
2018-May-19 21:20N 48°31' W 122°37'0 0.0
2018-May-19 20:56N 48°31' W 122°37'0 0.0
2018-May-19 19:32N 48°31' W 122°37'0 0.0
2018-May-19 19:08N 48°31' W 122°37'0 0.0
2018-May-19 18:56N 48°31' W 122°37'0 0.0
2018-May-19 18:26N 48°31' W 122°37'0 0.0
2018-May-19 17:56N 48°31' W 122°37'0 0.0
2018-May-19 17:26N 48°31' W 122°37'0 0.0
2018-May-19 16:50N 48°31' W 122°37'0 0.0
2018-May-19 16:26N 48°31' W 122°37'0 0.0
2018-May-19 15:56N 48°31' W 122°37'0 0.0
2018-May-19 15:20N 48°31' W 122°37'0 0.0
2018-May-19 14:38N 48°31' W 122°37'0 0.0
2018-May-19 14:26N 48°31' W 122°37'0 0.0
2018-May-19 13:56N 48°31' W 122°37'0 0.0
2018-May-19 13:14N 48°31' W 122°37'0 0.0
2018-May-19 12:56N 48°31' W 122°37'0 0.0
2018-May-19 12:20N 48°31' W 122°37'0 0.0
2018-May-19 11:56N 48°31' W 122°37'0 0.0
2018-May-19 11:20N 48°31' W 122°37'0 0.0
2018-May-19 10:56N 48°31' W 122°37'0 0.0
2018-May-19 10:20N 48°31' W 122°37'0 0.0
2018-May-19 09:56N 48°31' W 122°37'0 0.0
2018-May-19 09:26N 48°31' W 122°37'0 0.0
2018-May-19 08:50N 48°31' W 122°37'0 0.0
2018-May-19 08:26N 48°31' W 122°37'0 0.0
2018-May-19 07:50N 48°31' W 122°37'0 0.0
2018-May-19 07:26N 48°31' W 122°37'0 0.0
2018-May-19 06:56N 48°31' W 122°37'0 0.0
2018-May-19 06:26N 48°31' W 122°37'0 0.0
2018-May-19 05:56N 48°31' W 122°37'0 0.0
2018-May-19 05:26N 48°31' W 122°37'0 0.0
2018-May-19 03:44N 48°31' W 122°37'0 0.0
2018-May-19 03:26N 48°31' W 122°37'0 0.0
2018-May-19 02:14N 48°31' W 122°37'0 0.0
2018-May-19 01:56N 48°31' W 122°37'0 0.0
2018-May-19 00:32N 48°31' W 122°37'0 0.1
2018-May-19 00:26N 48°31' W 122°37'0 0.0
2018-May-18 23:56N 48°31' W 122°37'0 0.0
2018-May-18 23:26N 48°31' W 122°37'0 0.0
2018-May-18 22:56N 48°31' W 122°37'0 0.0
2018-May-18 22:20N 48°31' W 122°37'0 0.0
2018-May-18 20:50N 48°31' W 122°37'0 0.0
2018-May-18 20:26N 48°31' W 122°37'0 0.0
2018-May-18 19:20N 48°31' W 122°37'0 0.0
2018-May-18 18:26N 48°31' W 122°37'0 0.0
2018-May-18 17:56N 48°31' W 122°37'0 0.0
2018-May-18 17:14N 48°31' W 122°37'0 0.0
2018-May-18 16:56N 48°31' W 122°37'0 0.0
2018-May-18 15:32N 48°31' W 122°37'0 0.1
2018-May-18 15:26N 48°31' W 122°37'0 0.0
2018-May-18 14:56N 48°31' W 122°37'0 0.0
2018-May-18 14:26N 48°31' W 122°37'0 0.0
2018-May-18 13:32N 48°31' W 122°37'0 0.0
2018-May-18 13:26N 48°31' W 122°37'0 0.0
2018-May-18 12:50N 48°31' W 122°37'0 0.0
2018-May-18 12:26N 48°31' W 122°37'0 0.0
2018-May-18 11:32N 48°31' W 122°37'0 0.0
2018-May-18 11:14N 48°31' W 122°37'0 0.0
2018-May-18 10:32N 48°31' W 122°37'0 0.0
2018-May-18 10:14N 48°31' W 122°37'0 0.0
2018-May-18 09:44N 48°31' W 122°37'0 0.0
2018-May-18 09:26N 48°31' W 122°37'0 0.0
2018-May-18 08:56N 48°31' W 122°37'0 0.0
2018-May-18 08:26N 48°31' W 122°37'0 0.0
2018-May-18 07:50N 48°31' W 122°37'0 0.0
2018-May-18 06:56N 48°31' W 122°37'0 0.0
2018-May-18 06:14N 48°31' W 122°37'0 0.0
2018-May-18 05:44N 48°31' W 122°37'0 0.0
2018-May-18 05:14N 48°31' W 122°37'0 0.0
2018-May-18 04:50N 48°31' W 122°37'0 0.0
2018-May-18 04:20N 48°31' W 122°37'0 0.0
2018-May-18 03:20N 48°31' W 122°37'0 0.0
2018-May-18 02:50N 48°31' W 122°37'0 0.0
2018-May-18 02:26N 48°31' W 122°37'0 0.0
2018-May-18 01:56N 48°31' W 122°37'0 0.0
2018-May-18 01:26N 48°31' W 122°37'0 0.0
2018-May-18 00:56N 48°31' W 122°37'0 0.0
2018-May-17 23:07N 48°31' W 122°37'0 3.2
2018-May-17 22:58N 48°31' W 122°37'1 1.3
2018-May-17 22:24N 48°31' W 122°36'0 0.0
2018-May-17 22:00N 48°31' W 122°36'0 0.0
2018-May-17 21:30N 48°31' W 122°36'0 0.0
2018-May-17 21:00N 48°31' W 122°36'0 0.0
2018-May-17 20:30N 48°31' W 122°36'1 0.8
2018-May-17 19:34N 48°31' W 122°37'0 0.0
2018-May-17 19:22N 48°31' W 122°37'0 0.0
2018-May-17 18:52N 48°31' W 122°37'0 0.0
2018-May-17 18:22N 48°31' W 122°37'0 0.0
2018-May-17 17:46N 48°31' W 122°37'0 0.0
2018-May-17 17:22N 48°31' W 122°37'0 0.0
2018-May-17 16:58N 48°31' W 122°37'0 0.0
2018-May-17 16:28N 48°31' W 122°37'0 0.0
2018-May-17 15:58N 48°31' W 122°37'0 0.0
2018-May-17 15:28N 48°31' W 122°37'0 0.0
2018-May-17 14:52N 48°31' W 122°37'0 0.0
2018-May-17 14:28N 48°31' W 122°37'0 0.0
2018-May-17 13:58N 48°31' W 122°37'0 0.0
2018-May-17 13:28N 48°31' W 122°37'0 0.0
2018-May-17 12:58N 48°31' W 122°37'0 0.0
2018-May-17 12:28N 48°31' W 122°37'0 0.0
2018-May-17 11:58N 48°31' W 122°37'0 0.0
2018-May-17 11:28N 48°31' W 122°37'0 0.0
2018-May-17 10:58N 48°31' W 122°37'0 0.0
2018-May-17 10:28N 48°31' W 122°37'0 0.0
2018-May-17 09:52N 48°31' W 122°37'0 0.0
2018-May-17 09:28N 48°31' W 122°37'0 0.0
2018-May-17 08:58N 48°31' W 122°37'0 0.0
2018-May-17 08:16N 48°31' W 122°37'0 0.0
2018-May-17 07:58N 48°31' W 122°37'0 0.0
2018-May-17 07:28N 48°31' W 122°37'0 0.0
2018-May-17 06:58N 48°31' W 122°37'0 0.0
2018-May-17 06:28N 48°31' W 122°37'0 0.0
2018-May-17 05:58N 48°31' W 122°37'0 0.0
2018-May-17 05:28N 48°31' W 122°37'0 0.0
2018-May-17 04:58N 48°31' W 122°37'0 0.0
2018-May-17 04:28N 48°31' W 122°37'0 0.0
2018-May-17 03:58N 48°31' W 122°37'0 0.0
2018-May-17 03:28N 48°31' W 122°37'0 0.0
2018-May-17 02:58N 48°31' W 122°37'0 0.0
2018-May-17 02:28N 48°31' W 122°37'0 0.0
2018-May-17 01:52N 48°31' W 122°37'0 0.0
2018-May-17 01:28N 48°31' W 122°37'0 0.0
2018-May-16 23:34N 48°31' W 122°37'0 0.0
2018-May-16 23:22N 48°31' W 122°37'0 0.0
2018-May-16 22:58N 48°31' W 122°37'0 0.0
2018-May-16 22:04N 48°31' W 122°37'0 0.0
2018-May-16 21:40N 48°31' W 122°37'0 0.0
2018-May-16 21:22N 48°31' W 122°37'0 0.0
2018-May-16 20:46N 48°31' W 122°37'0 0.0
2018-May-16 20:22N 48°31' W 122°37'0 0.0
2018-May-16 19:58N 48°31' W 122°37'0 0.0
2018-May-16 18:52N 48°31' W 122°37'0 0.0
2018-May-16 18:28N 48°31' W 122°37'0 0.0
2018-May-16 17:58N 48°31' W 122°37'0 0.0
2018-May-16 17:16N 48°31' W 122°37'0 0.0
2018-May-16 16:40N 48°31' W 122°37'0 0.0
2018-May-16 16:04N 48°31' W 122°37'0 0.0
2018-May-16 15:52N 48°31' W 122°37'0 0.0
2018-May-16 15:22N 48°31' W 122°37'0 0.0
2018-May-16 14:58N 48°31' W 122°37'0 0.0
2018-May-16 14:28N 48°31' W 122°37'0 0.0
2018-May-16 13:58N 48°31' W 122°37'0 0.0
2018-May-16 13:28N 48°31' W 122°37'0 0.0
2018-May-16 12:16N 48°31' W 122°37'0 0.0
2018-May-16 11:46N 48°31' W 122°37'0 0.0
2018-May-16 11:28N 48°31' W 122°37'0 0.0
2018-May-16 10:58N 48°31' W 122°37'0 0.0
2018-May-16 10:28N 48°31' W 122°37'0 0.0
2018-May-16 09:58N 48°31' W 122°37'0 0.0
2018-May-16 09:28N 48°31' W 122°37'0 0.0
2018-May-16 08:58N 48°31' W 122°37'0 0.0
2018-May-16 08:28N 48°31' W 122°37'0 0.0
2018-May-16 07:58N 48°31' W 122°37'0 0.0
2018-May-16 07:10N 48°31' W 122°37'0 0.0
2018-May-16 06:52N 48°31' W 122°37'0 0.0
2018-May-16 06:28N 48°31' W 122°37'0 0.0
2018-May-16 05:52N 48°31' W 122°37'0 0.0
2018-May-16 05:22N 48°31' W 122°37'0 0.0
2018-May-16 04:58N 48°31' W 122°37'0 0.0
2018-May-16 04:04N 48°31' W 122°37'0 0.1
2018-May-16 03:58N 48°31' W 122°37'0 0.0
2018-May-16 03:28N 48°31' W 122°37'0 0.0
2018-May-16 02:40N 48°31' W 122°37'0 0.0
2018-May-16 02:28N 48°31' W 122°37'0 0.0
2018-May-16 01:52N 48°31' W 122°37'0 0.0
2018-May-16 01:10N 48°31' W 122°37'0 0.0
2018-May-16 00:52N 48°31' W 122°37'  

Dump ship's entire track history